sensor_id;sensor_type;location;lat;lon;timestamp;temperature;humidity
36458;DHT22;22480;50.546;12.292;2023-10-08T00:01:53;14.50;99.90
36458;DHT22;22480;50.546;12.292;2023-10-08T00:04:21;14.50;99.90
36458;DHT22;22480;50.546;12.292;2023-10-08T00:06:47;14.40;99.90
36458;DHT22;22480;50.546;12.292;2023-10-08T00:09:13;14.40;99.90
36458;DHT22;22480;50.546;12.292;2023-10-08T00:11:40;14.30;99.90
36458;DHT22;22480;50.546;12.292;2023-10-08T00:14:07;14.20;99.90
36458;DHT22;22480;50.546;12.292;2023-10-08T00:16:38;14.20;99.90
36458;DHT22;22480;50.546;12.292;2023-10-08T00:19:06;14.20;99.90
36458;DHT22;22480;50.546;12.292;2023-10-08T00:21:37;14.10;99.90
36458;DHT22;22480;50.546;12.292;2023-10-08T00:24:03;14.10;99.90
36458;DHT22;22480;50.546;12.292;2023-10-08T00:26:33;14.00;99.90
36458;DHT22;22480;50.546;12.292;2023-10-08T00:29:04;14.00;99.90
36458;DHT22;22480;50.546;12.292;2023-10-08T00:31:43;13.90;99.90
36458;DHT22;22480;50.546;12.292;2023-10-08T00:34:13;13.80;99.90
36458;DHT22;22480;50.546;12.292;2023-10-08T00:36:44;13.70;99.90
36458;DHT22;22480;50.546;12.292;2023-10-08T00:39:10;13.70;99.90
36458;DHT22;22480;50.546;12.292;2023-10-08T00:41:43;13.70;99.90
36458;DHT22;22480;50.546;12.292;2023-10-08T00:44:11;13.70;99.90
36458;DHT22;22480;50.546;12.292;2023-10-08T00:46:44;13.70;99.90
36458;DHT22;22480;50.546;12.292;2023-10-08T00:49:21;13.70;99.90
36458;DHT22;22480;50.546;12.292;2023-10-08T00:51:48;13.70;99.90
36458;DHT22;22480;50.546;12.292;2023-10-08T00:54:25;13.80;99.90
36458;DHT22;22480;50.546;12.292;2023-10-08T00:56:54;13.80;99.90
36458;DHT22;22480;50.546;12.292;2023-10-08T00:59:24;13.90;99.90
36458;DHT22;22480;50.546;12.292;2023-10-08T01:01:51;13.90;99.90
36458;DHT22;22480;50.546;12.292;2023-10-08T01:04:23;13.90;99.90
36458;DHT22;22480;50.546;12.292;2023-10-08T01:06:57;13.90;99.90
36458;DHT22;22480;50.546;12.292;2023-10-08T01:09:40;14.00;99.90
36458;DHT22;22480;50.546;12.292;2023-10-08T01:14:54;14.10;99.90
36458;DHT22;22480;50.546;12.292;2023-10-08T01:17:21;14.10;99.90
36458;DHT22;22480;50.546;12.292;2023-10-08T01:19:51;14.10;99.90
36458;DHT22;22480;50.546;12.292;2023-10-08T01:22:22;14.20;99.90
36458;DHT22;22480;50.546;12.292;2023-10-08T01:24:48;14.20;99.90
36458;DHT22;22480;50.546;12.292;2023-10-08T01:27:15;14.30;99.90
36458;DHT22;22480;50.546;12.292;2023-10-08T01:29:51;14.30;99.90
36458;DHT22;22480;50.546;12.292;2023-10-08T01:32:20;14.40;99.90
36458;DHT22;22480;50.546;12.292;2023-10-08T01:34:47;14.30;99.90
36458;DHT22;22480;50.546;12.292;2023-10-08T01:37:17;14.40;99.90
36458;DHT22;22480;50.546;12.292;2023-10-08T01:39:47;14.40;99.90
36458;DHT22;22480;50.546;12.292;2023-10-08T01:42:16;14.40;99.90
36458;DHT22;22480;50.546;12.292;2023-10-08T01:44:49;14.40;99.90
36458;DHT22;22480;50.546;12.292;2023-10-08T01:47:17;14.40;99.90
36458;DHT22;22480;50.546;12.292;2023-10-08T01:49:44;14.40;99.90
36458;DHT22;22480;50.546;12.292;2023-10-08T01:52:12;14.40;99.90
36458;DHT22;22480;50.546;12.292;2023-10-08T01:54:50;14.40;99.90
36458;DHT22;22480;50.546;12.292;2023-10-08T01:57:19;14.40;99.90
36458;DHT22;22480;50.546;12.292;2023-10-08T01:59:45;14.50;99.90
36458;DHT22;22480;50.546;12.292;2023-10-08T02:02:11;14.50;99.90
36458;DHT22;22480;50.546;12.292;2023-10-08T02:04:39;14.50;99.90
36458;DHT22;22480;50.546;12.292;2023-10-08T02:07:05;14.60;99.90
36458;DHT22;22480;50.546;12.292;2023-10-08T02:09:39;14.60;99.90
36458;DHT22;22480;50.546;12.292;2023-10-08T02:12:05;14.60;99.90
36458;DHT22;22480;50.546;12.292;2023-10-08T02:14:30;14.60;99.90
36458;DHT22;22480;50.546;12.292;2023-10-08T02:16:58;14.60;99.90
36458;DHT22;22480;50.546;12.292;2023-10-08T02:19:27;14.70;99.90
36458;DHT22;22480;50.546;12.292;2023-10-08T02:21:54;14.60;99.90
36458;DHT22;22480;50.546;12.292;2023-10-08T02:24:21;14.60;99.90
36458;DHT22;22480;50.546;12.292;2023-10-08T02:26:53;14.50;99.90
36458;DHT22;22480;50.546;12.292;2023-10-08T02:29:25;14.50;99.90
36458;DHT22;22480;50.546;12.292;2023-10-08T02:31:50;14.50;99.90
36458;DHT22;22480;50.546;12.292;2023-10-08T02:34:16;14.50;99.90
36458;DHT22;22480;50.546;12.292;2023-10-08T02:36:42;14.50;99.90
36458;DHT22;22480;50.546;12.292;2023-10-08T02:39:08;14.50;99.90
36458;DHT22;22480;50.546;12.292;2023-10-08T02:41:44;14.50;99.90
36458;DHT22;22480;50.546;12.292;2023-10-08T02:44:12;14.50;99.90
36458;DHT22;22480;50.546;12.292;2023-10-08T02:46:40;14.40;99.90
36458;DHT22;22480;50.546;12.292;2023-10-08T02:49:08;14.40;99.90
36458;DHT22;22480;50.546;12.292;2023-10-08T02:51:40;14.50;99.90
36458;DHT22;22480;50.546;12.292;2023-10-08T02:54:07;14.50;99.90
36458;DHT22;22480;50.546;12.292;2023-10-08T02:56:34;14.50;99.90
36458;DHT22;22480;50.546;12.292;2023-10-08T02:59:00;14.50;99.90
36458;DHT22;22480;50.546;12.292;2023-10-08T03:01:27;14.50;99.90
36458;DHT22;22480;50.546;12.292;2023-10-08T03:03:53;14.50;99.90
36458;DHT22;22480;50.546;12.292;2023-10-08T03:06:34;14.60;99.90
36458;DHT22;22480;50.546;12.292;2023-10-08T03:09:01;14.60;99.90
36458;DHT22;22480;50.546;12.292;2023-10-08T03:11:30;14.50;99.90
36458;DHT22;22480;50.546;12.292;2023-10-08T03:13:57;14.50;99.90
36458;DHT22;22480;50.546;12.292;2023-10-08T03:16:24;14.50;99.90
36458;DHT22;22480;50.546;12.292;2023-10-08T03:18:54;14.50;99.90
36458;DHT22;22480;50.546;12.292;2023-10-08T03:21:22;14.50;99.90
36458;DHT22;22480;50.546;12.292;2023-10-08T03:24:03;14.50;99.90
36458;DHT22;22480;50.546;12.292;2023-10-08T03:26:49;14.50;99.90
36458;DHT22;22480;50.546;12.292;2023-10-08T03:29:21;14.60;99.90
36458;DHT22;22480;50.546;12.292;2023-10-08T03:31:47;14.60;99.90
36458;DHT22;22480;50.546;12.292;2023-10-08T03:34:15;14.60;99.90
36458;DHT22;22480;50.546;12.292;2023-10-08T03:36:44;14.50;99.90
36458;DHT22;22480;50.546;12.292;2023-10-08T03:39:10;14.50;99.90
36458;DHT22;22480;50.546;12.292;2023-10-08T03:41:39;14.50;99.90
36458;DHT22;22480;50.546;12.292;2023-10-08T03:44:17;14.50;99.90
36458;DHT22;22480;50.546;12.292;2023-10-08T03:46:43;14.50;99.90
36458;DHT22;22480;50.546;12.292;2023-10-08T03:49:12;14.50;99.90
36458;DHT22;22480;50.546;12.292;2023-10-08T03:51:47;14.50;99.90
36458;DHT22;22480;50.546;12.292;2023-10-08T03:54:18;14.50;99.90
36458;DHT22;22480;50.546;12.292;2023-10-08T03:56:45;14.50;99.90
36458;DHT22;22480;50.546;12.292;2023-10-08T03:59:15;14.50;99.90
36458;DHT22;22480;50.546;12.292;2023-10-08T04:02:03;14.50;99.90
36458;DHT22;22480;50.546;12.292;2023-10-08T04:04:49;14.50;99.90
36458;DHT22;22480;50.546;12.292;2023-10-08T04:07:26;14.50;99.90
36458;DHT22;22480;50.546;12.292;2023-10-08T04:09:59;14.60;99.90
36458;DHT22;22480;50.546;12.292;2023-10-08T04:12:33;14.60;99.90
36458;DHT22;22480;50.546;12.292;2023-10-08T04:15:07;14.70;99.90
36458;DHT22;22480;50.546;12.292;2023-10-08T04:17:36;14.90;99.90
36458;DHT22;22480;50.546;12.292;2023-10-08T04:20:13;14.90;99.90
36458;DHT22;22480;50.546;12.292;2023-10-08T04:23:00;15.10;99.90
36458;DHT22;22480;50.546;12.292;2023-10-08T04:25:32;15.30;99.90
36458;DHT22;22480;50.546;12.292;2023-10-08T04:27:59;15.40;99.90
36458;DHT22;22480;50.546;12.292;2023-10-08T04:30:35;15.60;99.90
36458;DHT22;22480;50.546;12.292;2023-10-08T04:33:05;15.60;99.90
36458;DHT22;22480;50.546;12.292;2023-10-08T04:35:39;15.40;99.90
36458;DHT22;22480;50.546;12.292;2023-10-08T04:38:14;14.90;99.90
36458;DHT22;22480;50.546;12.292;2023-10-08T04:40:43;14.20;99.90
36458;DHT22;22480;50.546;12.292;2023-10-08T04:43:20;13.70;99.90
36458;DHT22;22480;50.546;12.292;2023-10-08T04:45:59;13.20;99.90
36458;DHT22;22480;50.546;12.292;2023-10-08T04:48:30;12.90;99.90
36458;DHT22;22480;50.546;12.292;2023-10-08T04:50:59;12.70;99.90
36458;DHT22;22480;50.546;12.292;2023-10-08T04:53:28;12.40;99.90
36458;DHT22;22480;50.546;12.292;2023-10-08T04:56:01;12.30;99.90
36458;DHT22;22480;50.546;12.292;2023-10-08T04:58:45;12.10;99.90
36458;DHT22;22480;50.546;12.292;2023-10-08T05:01:17;12.00;99.90
36458;DHT22;22480;50.546;12.292;2023-10-08T05:03:48;11.90;99.90
36458;DHT22;22480;50.546;12.292;2023-10-08T05:06:30;11.80;99.90
36458;DHT22;22480;50.546;12.292;2023-10-08T05:09:16;11.80;99.90
36458;DHT22;22480;50.546;12.292;2023-10-08T05:11:47;11.70;99.90
36458;DHT22;22480;50.546;12.292;2023-10-08T05:14:17;11.70;99.90
36458;DHT22;22480;50.546;12.292;2023-10-08T05:17:05;11.60;99.90
36458;DHT22;22480;50.546;12.292;2023-10-08T05:19:43;11.60;99.90
36458;DHT22;22480;50.546;12.292;2023-10-08T05:22:41;11.50;99.90
36458;DHT22;22480;50.546;12.292;2023-10-08T05:25:10;11.40;99.90
36458;DHT22;22480;50.546;12.292;2023-10-08T05:27:46;11.40;99.90
36458;DHT22;22480;50.546;12.292;2023-10-08T05:30:27;11.40;99.90
36458;DHT22;22480;50.546;12.292;2023-10-08T05:33:03;11.40;99.90
36458;DHT22;22480;50.546;12.292;2023-10-08T05:35:33;11.30;99.90
36458;DHT22;22480;50.546;12.292;2023-10-08T05:38:12;11.30;99.90
36458;DHT22;22480;50.546;12.292;2023-10-08T05:41:04;11.30;99.90
36458;DHT22;22480;50.546;12.292;2023-10-08T05:46:08;11.20;99.90
36458;DHT22;22480;50.546;12.292;2023-10-08T05:48:53;11.20;99.90
36458;DHT22;22480;50.546;12.292;2023-10-08T05:51:35;11.20;99.90
36458;DHT22;22480;50.546;12.292;2023-10-08T05:54:15;11.10;99.90
36458;DHT22;22480;50.546;12.292;2023-10-08T05:57:10;11.10;99.90
36458;DHT22;22480;50.546;12.292;2023-10-08T06:02:40;11.00;99.90
36458;DHT22;22480;50.546;12.292;2023-10-08T06:05:12;10.90;99.90
36458;DHT22;22480;50.546;12.292;2023-10-08T06:07:45;11.00;99.90
36458;DHT22;22480;50.546;12.292;2023-10-08T06:10:32;10.90;99.90
36458;DHT22;22480;50.546;12.292;2023-10-08T06:15:49;10.90;99.90
36458;DHT22;22480;50.546;12.292;2023-10-08T06:18:24;10.80;99.90
36458;DHT22;22480;50.546;12.292;2023-10-08T06:20:57;10.80;99.90
36458;DHT22;22480;50.546;12.292;2023-10-08T06:23:25;10.80;99.90
36458;DHT22;22480;50.546;12.292;2023-10-08T06:25:52;10.80;99.90
36458;DHT22;22480;50.546;12.292;2023-10-08T06:28:32;10.80;99.90
36458;DHT22;22480;50.546;12.292;2023-10-08T06:31:03;10.80;99.90
36458;DHT22;22480;50.546;12.292;2023-10-08T06:33:32;10.80;99.90
36458;DHT22;22480;50.546;12.292;2023-10-08T06:36:03;10.70;99.90
36458;DHT22;22480;50.546;12.292;2023-10-08T06:38:40;10.70;99.90
36458;DHT22;22480;50.546;12.292;2023-10-08T06:41:09;10.70;99.90
36458;DHT22;22480;50.546;12.292;2023-10-08T06:43:38;10.70;99.90
36458;DHT22;22480;50.546;12.292;2023-10-08T06:46:04;10.60;99.90
36458;DHT22;22480;50.546;12.292;2023-10-08T06:48:33;10.70;99.90
36458;DHT22;22480;50.546;12.292;2023-10-08T06:51:00;10.60;99.90
36458;DHT22;22480;50.546;12.292;2023-10-08T06:53:41;10.60;99.90
36458;DHT22;22480;50.546;12.292;2023-10-08T06:56:08;10.60;99.90
36458;DHT22;22480;50.546;12.292;2023-10-08T06:58:38;10.60;99.90
36458;DHT22;22480;50.546;12.292;2023-10-08T07:01:04;10.60;99.90
36458;DHT22;22480;50.546;12.292;2023-10-08T07:03:31;10.60;99.90
36458;DHT22;22480;50.546;12.292;2023-10-08T07:05:59;10.50;99.90
36458;DHT22;22480;50.546;12.292;2023-10-08T07:08:29;10.50;99.90
36458;DHT22;22480;50.546;12.292;2023-10-08T07:10:58;10.50;99.90
36458;DHT22;22480;50.546;12.292;2023-10-08T07:13:27;10.50;99.90
36458;DHT22;22480;50.546;12.292;2023-10-08T07:15:55;10.50;99.90
36458;DHT22;22480;50.546;12.292;2023-10-08T07:18:22;10.50;99.90
36458;DHT22;22480;50.546;12.292;2023-10-08T07:20:55;10.60;99.90
36458;DHT22;22480;50.546;12.292;2023-10-08T07:23:26;10.60;99.90
36458;DHT22;22480;50.546;12.292;2023-10-08T07:25:58;10.60;99.90
36458;DHT22;22480;50.546;12.292;2023-10-08T07:28:44;10.50;99.90
36458;DHT22;22480;50.546;12.292;2023-10-08T07:31:17;10.50;99.90
36458;DHT22;22480;50.546;12.292;2023-10-08T07:33:51;10.60;99.90
36458;DHT22;22480;50.546;12.292;2023-10-08T07:36:26;10.60;99.90
36458;DHT22;22480;50.546;12.292;2023-10-08T07:38:53;10.60;99.90
36458;DHT22;22480;50.546;12.292;2023-10-08T07:41:19;10.70;99.90
36458;DHT22;22480;50.546;12.292;2023-10-08T07:43:49;10.60;99.90
36458;DHT22;22480;50.546;12.292;2023-10-08T07:46:23;10.60;99.90
36458;DHT22;22480;50.546;12.292;2023-10-08T07:48:52;10.60;99.90
36458;DHT22;22480;50.546;12.292;2023-10-08T07:51:18;10.60;99.90
36458;DHT22;22480;50.546;12.292;2023-10-08T07:53:53;10.60;99.90
36458;DHT22;22480;50.546;12.292;2023-10-08T07:56:25;10.60;99.90
36458;DHT22;22480;50.546;12.292;2023-10-08T07:58:52;10.60;99.90
36458;DHT22;22480;50.546;12.292;2023-10-08T08:01:17;10.60;99.90
36458;DHT22;22480;50.546;12.292;2023-10-08T08:03:46;10.60;99.90
36458;DHT22;22480;50.546;12.292;2023-10-08T08:06:14;10.50;99.90
36458;DHT22;22480;50.546;12.292;2023-10-08T08:08:41;10.50;99.90
36458;DHT22;22480;50.546;12.292;2023-10-08T08:11:08;10.60;99.90
36458;DHT22;22480;50.546;12.292;2023-10-08T08:13:44;10.60;99.90
36458;DHT22;22480;50.546;12.292;2023-10-08T08:16:15;10.70;99.90
36458;DHT22;22480;50.546;12.292;2023-10-08T08:18:48;10.70;99.90
36458;DHT22;22480;50.546;12.292;2023-10-08T08:21:14;10.70;99.90
36458;DHT22;22480;50.546;12.292;2023-10-08T08:23:44;10.70;99.90
36458;DHT22;22480;50.546;12.292;2023-10-08T08:26:20;10.70;99.90
36458;DHT22;22480;50.546;12.292;2023-10-08T08:29:01;10.70;99.90
36458;DHT22;22480;50.546;12.292;2023-10-08T08:31:29;10.70;99.90
36458;DHT22;22480;50.546;12.292;2023-10-08T08:34:01;10.80;99.90
36458;DHT22;22480;50.546;12.292;2023-10-08T08:36:30;10.70;99.90
36458;DHT22;22480;50.546;12.292;2023-10-08T08:38:57;10.70;99.90
36458;DHT22;22480;50.546;12.292;2023-10-08T08:41:23;10.60;99.90
36458;DHT22;22480;50.546;12.292;2023-10-08T08:43:51;10.60;99.90
36458;DHT22;22480;50.546;12.292;2023-10-08T08:46:34;10.70;99.90
36458;DHT22;22480;50.546;12.292;2023-10-08T08:49:05;10.80;99.90
36458;DHT22;22480;50.546;12.292;2023-10-08T08:51:37;10.80;99.90
36458;DHT22;22480;50.546;12.292;2023-10-08T08:54:04;10.80;99.90
36458;DHT22;22480;50.546;12.292;2023-10-08T08:56:38;10.70;99.90
36458;DHT22;22480;50.546;12.292;2023-10-08T08:59:05;10.60;99.90
36458;DHT22;22480;50.546;12.292;2023-10-08T09:01:31;10.60;99.90
36458;DHT22;22480;50.546;12.292;2023-10-08T09:04:01;10.60;99.90
36458;DHT22;22480;50.546;12.292;2023-10-08T09:06:34;10.50;99.90
36458;DHT22;22480;50.546;12.292;2023-10-08T09:09:01;10.50;99.90
36458;DHT22;22480;50.546;12.292;2023-10-08T09:11:45;10.50;99.90
36458;DHT22;22480;50.546;12.292;2023-10-08T09:14:11;10.40;99.90
36458;DHT22;22480;50.546;12.292;2023-10-08T09:16:37;10.50;99.90
36458;DHT22;22480;50.546;12.292;2023-10-08T09:19:03;10.50;99.90
36458;DHT22;22480;50.546;12.292;2023-10-08T09:21:30;10.50;99.90
36458;DHT22;22480;50.546;12.292;2023-10-08T09:23:56;10.50;99.90
36458;DHT22;22480;50.546;12.292;2023-10-08T09:26:25;10.50;99.90
36458;DHT22;22480;50.546;12.292;2023-10-08T09:28:54;10.60;99.90
36458;DHT22;22480;50.546;12.292;2023-10-08T09:31:23;10.60;99.90
36458;DHT22;22480;50.546;12.292;2023-10-08T09:33:55;10.70;99.90
36458;DHT22;22480;50.546;12.292;2023-10-08T09:36:23;10.70;99.90
36458;DHT22;22480;50.546;12.292;2023-10-08T09:39:03;10.70;99.90
36458;DHT22;22480;50.546;12.292;2023-10-08T09:41:32;10.60;99.90
36458;DHT22;22480;50.546;12.292;2023-10-08T09:43:59;10.50;99.90
36458;DHT22;22480;50.546;12.292;2023-10-08T09:46:31;10.50;99.90
36458;DHT22;22480;50.546;12.292;2023-10-08T09:49:02;10.30;99.90
36458;DHT22;22480;50.546;12.292;2023-10-08T09:51:32;10.30;99.90
36458;DHT22;22480;50.546;12.292;2023-10-08T09:54:23;10.20;99.90
36458;DHT22;22480;50.546;12.292;2023-10-08T09:56:51;10.20;99.90
36458;DHT22;22480;50.546;12.292;2023-10-08T09:59:18;10.10;99.90
36458;DHT22;22480;50.546;12.292;2023-10-08T10:01:46;10.10;99.90
36458;DHT22;22480;50.546;12.292;2023-10-08T10:04:23;10.10;99.90
36458;DHT22;22480;50.546;12.292;2023-10-08T10:06:50;10.10;99.90
36458;DHT22;22480;50.546;12.292;2023-10-08T10:09:24;10.10;99.90
36458;DHT22;22480;50.546;12.292;2023-10-08T10:11:50;10.20;99.90
36458;DHT22;22480;50.546;12.292;2023-10-08T10:14:17;10.30;99.90
36458;DHT22;22480;50.546;12.292;2023-10-08T10:16:47;10.30;99.90
36458;DHT22;22480;50.546;12.292;2023-10-08T10:19:17;10.20;99.90
36458;DHT22;22480;50.546;12.292;2023-10-08T10:21:46;10.20;99.90
36458;DHT22;22480;50.546;12.292;2023-10-08T10:24:35;10.10;99.90
36458;DHT22;22480;50.546;12.292;2023-10-08T10:27:13;10.10;99.90
36458;DHT22;22480;50.546;12.292;2023-10-08T10:29:43;10.10;99.90
36458;DHT22;22480;50.546;12.292;2023-10-08T10:32:12;10.10;99.90
36458;DHT22;22480;50.546;12.292;2023-10-08T10:34:44;10.20;99.90
36458;DHT22;22480;50.546;12.292;2023-10-08T10:37:13;10.30;99.90
36458;DHT22;22480;50.546;12.292;2023-10-08T10:40:11;10.30;99.90
36458;DHT22;22480;50.546;12.292;2023-10-08T10:42:39;10.30;99.90
36458;DHT22;22480;50.546;12.292;2023-10-08T10:45:15;10.40;99.90
36458;DHT22;22480;50.546;12.292;2023-10-08T10:47:59;10.50;99.90
36458;DHT22;22480;50.546;12.292;2023-10-08T10:50:41;10.50;99.90
36458;DHT22;22480;50.546;12.292;2023-10-08T10:53:25;10.60;99.90
36458;DHT22;22480;50.546;12.292;2023-10-08T10:55:53;10.80;99.90
36458;DHT22;22480;50.546;12.292;2023-10-08T10:58:37;10.80;99.90
36458;DHT22;22480;50.546;12.292;2023-10-08T11:01:06;10.90;99.90
36458;DHT22;22480;50.546;12.292;2023-10-08T11:03:52;10.90;99.90
36458;DHT22;22480;50.546;12.292;2023-10-08T11:06:19;11.10;99.90
36458;DHT22;22480;50.546;12.292;2023-10-08T11:08:54;11.30;99.90
36458;DHT22;22480;50.546;12.292;2023-10-08T11:11:30;11.30;99.90
36458;DHT22;22480;50.546;12.292;2023-10-08T11:13:58;11.30;99.90
36458;DHT22;22480;50.546;12.292;2023-10-08T11:16:26;11.30;99.90
36458;DHT22;22480;50.546;12.292;2023-10-08T11:18:53;11.30;99.90
36458;DHT22;22480;50.546;12.292;2023-10-08T11:21:23;11.30;99.90
36458;DHT22;22480;50.546;12.292;2023-10-08T11:23:51;11.30;99.90
36458;DHT22;22480;50.546;12.292;2023-10-08T11:26:36;11.40;99.90
36458;DHT22;22480;50.546;12.292;2023-10-08T11:29:06;11.50;99.90
36458;DHT22;22480;50.546;12.292;2023-10-08T11:31:40;11.60;99.90
36458;DHT22;22480;50.546;12.292;2023-10-08T11:34:06;11.70;99.90
36458;DHT22;22480;50.546;12.292;2023-10-08T11:36:36;11.70;99.90
36458;DHT22;22480;50.546;12.292;2023-10-08T11:39:14;11.70;99.90
36458;DHT22;22480;50.546;12.292;2023-10-08T11:44:22;11.90;99.90
36458;DHT22;22480;50.546;12.292;2023-10-08T11:46:49;12.10;99.90
36458;DHT22;22480;50.546;12.292;2023-10-08T11:49:18;12.30;99.90
36458;DHT22;22480;50.546;12.292;2023-10-08T11:51:45;12.50;99.90
36458;DHT22;22480;50.546;12.292;2023-10-08T11:54:11;12.60;99.90
36458;DHT22;22480;50.546;12.292;2023-10-08T11:56:38;12.60;99.90
36458;DHT22;22480;50.546;12.292;2023-10-08T11:59:05;12.70;99.90
36458;DHT22;22480;50.546;12.292;2023-10-08T12:01:38;12.70;99.90
36458;DHT22;22480;50.546;12.292;2023-10-08T12:04:08;12.80;99.90
36458;DHT22;22480;50.546;12.292;2023-10-08T12:06:39;12.70;99.90
36458;DHT22;22480;50.546;12.292;2023-10-08T12:09:10;12.70;99.90
36458;DHT22;22480;50.546;12.292;2023-10-08T12:11:37;12.60;99.90
36458;DHT22;22480;50.546;12.292;2023-10-08T12:14:05;12.60;99.90
36458;DHT22;22480;50.546;12.292;2023-10-08T12:16:31;12.50;99.90
36458;DHT22;22480;50.546;12.292;2023-10-08T12:19:01;12.50;99.90
36458;DHT22;22480;50.546;12.292;2023-10-08T12:21:28;12.30;99.90
36458;DHT22;22480;50.546;12.292;2023-10-08T12:24:00;12.00;99.90
36458;DHT22;22480;50.546;12.292;2023-10-08T12:26:30;11.80;99.90
36458;DHT22;22480;50.546;12.292;2023-10-08T12:28:56;11.70;99.90
36458;DHT22;22480;50.546;12.292;2023-10-08T12:31:23;11.60;99.90
36458;DHT22;22480;50.546;12.292;2023-10-08T12:33:52;11.50;99.90
36458;DHT22;22480;50.546;12.292;2023-10-08T12:36:28;11.40;99.90
36458;DHT22;22480;50.546;12.292;2023-10-08T12:38:58;11.30;99.90
36458;DHT22;22480;50.546;12.292;2023-10-08T12:41:25;11.30;99.90
36458;DHT22;22480;50.546;12.292;2023-10-08T12:43:54;11.20;99.90
36458;DHT22;22480;50.546;12.292;2023-10-08T12:46:20;11.30;99.90
36458;DHT22;22480;50.546;12.292;2023-10-08T12:48:50;11.40;99.90
36458;DHT22;22480;50.546;12.292;2023-10-08T12:51:24;11.60;99.90
36458;DHT22;22480;50.546;12.292;2023-10-08T12:53:54;11.80;99.90
36458;DHT22;22480;50.546;12.292;2023-10-08T12:56:46;11.90;99.90
36458;DHT22;22480;50.546;12.292;2023-10-08T12:59:14;12.20;99.90
36458;DHT22;22480;50.546;12.292;2023-10-08T13:01:48;12.40;99.90
36458;DHT22;22480;50.546;12.292;2023-10-08T13:04:17;12.70;99.90
36458;DHT22;22480;50.546;12.292;2023-10-08T13:06:50;12.90;99.90
36458;DHT22;22480;50.546;12.292;2023-10-08T13:09:17;13.20;99.90
36458;DHT22;22480;50.546;12.292;2023-10-08T13:11:43;13.50;99.90
36458;DHT22;22480;50.546;12.292;2023-10-08T13:14:08;13.80;99.90
36458;DHT22;22480;50.546;12.292;2023-10-08T13:16:36;14.10;99.90
36458;DHT22;22480;50.546;12.292;2023-10-08T13:19:03;14.30;99.90
36458;DHT22;22480;50.546;12.292;2023-10-08T13:21:31;14.50;99.90
36458;DHT22;22480;50.546;12.292;2023-10-08T13:23:58;14.10;99.90
36458;DHT22;22480;50.546;12.292;2023-10-08T13:26:26;14.20;99.90
36458;DHT22;22480;50.546;12.292;2023-10-08T13:28:57;14.20;99.90
36458;DHT22;22480;50.546;12.292;2023-10-08T13:31:25;14.10;99.90
36458;DHT22;22480;50.546;12.292;2023-10-08T13:33:51;13.90;99.90
36458;DHT22;22480;50.546;12.292;2023-10-08T13:36:18;13.60;99.90
36458;DHT22;22480;50.546;12.292;2023-10-08T13:38:45;13.50;99.90
36458;DHT22;22480;50.546;12.292;2023-10-08T13:41:12;13.50;99.90
36458;DHT22;22480;50.546;12.292;2023-10-08T13:43:42;13.40;99.90
36458;DHT22;22480;50.546;12.292;2023-10-08T13:46:13;13.40;99.90
36458;DHT22;22480;50.546;12.292;2023-10-08T13:48:40;13.30;99.90
36458;DHT22;22480;50.546;12.292;2023-10-08T13:51:19;13.20;99.90
36458;DHT22;22480;50.546;12.292;2023-10-08T13:53:56;13.20;99.90
36458;DHT22;22480;50.546;12.292;2023-10-08T13:56:26;13.20;99.90
36458;DHT22;22480;50.546;12.292;2023-10-08T13:58:56;12.90;99.90
36458;DHT22;22480;50.546;12.292;2023-10-08T14:01:34;12.80;99.90
36458;DHT22;22480;50.546;12.292;2023-10-08T14:04:00;12.80;99.90
36458;DHT22;22480;50.546;12.292;2023-10-08T14:06:38;13.00;99.90
36458;DHT22;22480;50.546;12.292;2023-10-08T14:09:08;13.10;99.90
36458;DHT22;22480;50.546;12.292;2023-10-08T14:11:38;13.00;99.90
36458;DHT22;22480;50.546;12.292;2023-10-08T14:14:04;12.90;99.90
36458;DHT22;22480;50.546;12.292;2023-10-08T14:16:39;12.80;99.90
36458;DHT22;22480;50.546;12.292;2023-10-08T14:19:09;12.80;99.90
36458;DHT22;22480;50.546;12.292;2023-10-08T14:21:41;12.80;99.90
36458;DHT22;22480;50.546;12.292;2023-10-08T14:24:20;12.80;99.90
36458;DHT22;22480;50.546;12.292;2023-10-08T14:26:46;12.90;99.90
36458;DHT22;22480;50.546;12.292;2023-10-08T14:29:18;13.00;99.90
36458;DHT22;22480;50.546;12.292;2023-10-08T14:31:46;12.90;99.90
36458;DHT22;22480;50.546;12.292;2023-10-08T14:34:15;12.90;99.90
36458;DHT22;22480;50.546;12.292;2023-10-08T14:36:41;13.00;99.90
36458;DHT22;22480;50.546;12.292;2023-10-08T14:39:26;13.00;99.90
36458;DHT22;22480;50.546;12.292;2023-10-08T14:42:10;12.70;99.90
36458;DHT22;22480;50.546;12.292;2023-10-08T14:44:55;12.70;99.90
36458;DHT22;22480;50.546;12.292;2023-10-08T14:47:21;12.50;99.90
36458;DHT22;22480;50.546;12.292;2023-10-08T14:49:47;12.50;99.90
36458;DHT22;22480;50.546;12.292;2023-10-08T14:52:13;12.50;99.90
36458;DHT22;22480;50.546;12.292;2023-10-08T14:54:39;12.70;99.90
36458;DHT22;22480;50.546;12.292;2023-10-08T14:57:07;12.90;99.90
36458;DHT22;22480;50.546;12.292;2023-10-08T14:59:33;13.00;99.90
36458;DHT22;22480;50.546;12.292;2023-10-08T15:01:59;12.90;99.90
36458;DHT22;22480;50.546;12.292;2023-10-08T15:04:25;12.80;99.90
36458;DHT22;22480;50.546;12.292;2023-10-08T15:06:54;12.60;99.90
36458;DHT22;22480;50.546;12.292;2023-10-08T15:09:22;12.50;99.90
36458;DHT22;22480;50.546;12.292;2023-10-08T15:11:52;12.30;99.90
36458;DHT22;22480;50.546;12.292;2023-10-08T15:14:19;12.00;99.90
36458;DHT22;22480;50.546;12.292;2023-10-08T15:16:46;11.80;99.90
36458;DHT22;22480;50.546;12.292;2023-10-08T15:19:23;11.70;99.90
36458;DHT22;22480;50.546;12.292;2023-10-08T15:21:50;11.70;99.90
36458;DHT22;22480;50.546;12.292;2023-10-08T15:26:43;11.50;99.90
36458;DHT22;22480;50.546;12.292;2023-10-08T15:29:09;11.40;99.90
36458;DHT22;22480;50.546;12.292;2023-10-08T15:31:35;11.30;99.90
36458;DHT22;22480;50.546;12.292;2023-10-08T15:34:01;11.30;99.90
36458;DHT22;22480;50.546;12.292;2023-10-08T15:36:30;11.10;99.90
36458;DHT22;22480;50.546;12.292;2023-10-08T15:38:58;10.90;99.90
36458;DHT22;22480;50.546;12.292;2023-10-08T15:41:24;10.70;99.90
36458;DHT22;22480;50.546;12.292;2023-10-08T15:43:51;10.60;99.90
36458;DHT22;22480;50.546;12.292;2023-10-08T15:46:20;10.50;99.90
36458;DHT22;22480;50.546;12.292;2023-10-08T15:48:46;10.30;99.90
36458;DHT22;22480;50.546;12.292;2023-10-08T15:51:12;10.20;99.90
36458;DHT22;22480;50.546;12.292;2023-10-08T15:53:38;10.20;99.90
36458;DHT22;22480;50.546;12.292;2023-10-08T15:56:05;10.10;99.90